Time;durP1;ratioP1;P1;durP2;ratioP2;P2;SDS_P1;SDS_P2;PMS_P1;PMS_P2;Temp;Humidity;BMP_temperature;BMP_pressure;BME280_temperature;BME280_humidity;BME280_pressure;Samples;Min_cycle;Max_cycle;Signal;HPM_P1;HPM_P2
2021/11/16 00:02:15;;;;;;;;;12.75;11.50;;;;;10.71;62.30;102055.66;5103175;27;45574;-69
2021/11/16 00:04:41;;;;;;;;;14.75;10.25;;;;;10.69;62.07;102044.97;5103380;27;46119;-69
2021/11/16 00:07:07;;;;;;;;;16.00;16.00;;;;;10.71;61.89;102051.19;5103076;27;45400;-69
2021/11/16 00:09:33;;;;;;;;;14.75;13.00;;;;;10.75;62.22;102050.22;5103513;27;45395;-69
2021/11/16 00:11:58;;;;;;;;;18.00;13.00;;;;;10.77;62.30;102057.34;5103033;27;45534;-69
2021/11/16 00:14:24;;;;;;;;;16.00;12.50;;;;;10.75;62.13;102049.34;5103371;27;46198;-69
2021/11/16 00:16:49;;;;;;;;;12.00;10.00;;;;;10.69;61.70;102050.31;5102996;27;45293;-69
2021/11/16 00:19:16;;;;;;;;;15.50;11.75;;;;;10.64;61.79;102038.81;5103533;27;45371;-69
2021/11/16 00:21:46;;;;;;;;;9.50;7.75;;;;;10.64;61.83;102033.47;5102545;27;45160;-69
2021/11/16 00:24:19;;;;;;;;;11.00;10.50;;;;;10.53;61.61;102028.25;5103120;27;45378;-69
2021/11/16 00:26:45;;;;;;;;;18.50;13.00;;;;;10.51;62.10;102040.72;5102921;27;45173;-69
2021/11/16 00:29:11;;;;;;;;;12.00;9.75;;;;;10.48;62.21;102030.06;5103234;27;45392;-69
2021/11/16 00:31:37;;;;;;;;;14.75;10.50;;;;;10.53;62.16;102027.38;5101765;27;45771;-69
2021/11/16 00:34:04;;;;;;;;;17.25;11.00;;;;;10.59;61.85;102029.94;5102160;27;46353;-69
2021/11/16 00:36:29;;;;;;;;;9.00;8.75;;;;;10.58;62.25;102014.84;5102446;27;45397;-69
2021/11/16 00:38:55;;;;;;;;;12.25;11.75;;;;;10.60;62.27;102014.81;5103024;27;45398;-70
2021/11/16 00:41:21;;;;;;;;;12.00;9.25;;;;;10.62;62.04;102010.34;5101288;27;45492;-69
2021/11/16 00:43:46;;;;;;;;;9.50;9.00;;;;;10.63;61.71;102007.66;5102697;27;45267;-69
2021/11/16 00:46:12;;;;;;;;;10.00;9.75;;;;;10.67;62.24;102005.81;5102710;27;45208;-69
2021/11/16 00:48:38;;;;;;;;;8.50;8.50;;;;;10.69;61.60;101996.00;5095620;27;46014;-69
2021/11/16 00:51:07;;;;;;;;;9.50;8.75;;;;;10.69;61.79;101996.91;5097078;27;45220;-69
2021/11/16 00:53:35;;;;;;;;;9.00;8.25;;;;;10.65;61.72;101995.16;5102702;27;45271;-69
2021/11/16 00:56:04;;;;;;;;;16.75;15.00;;;;;10.54;62.38;101994.41;5102531;27;45389;-69
2021/11/16 00:58:29;;;;;;;;;15.00;13.75;;;;;10.46;61.78;101989.19;5101992;27;45304;-69
2021/11/16 01:00:55;;;;;;;;;16.00;14.00;;;;;10.45;62.45;101987.41;5102349;27;45310;-69
2021/11/16 01:03:22;;;;;;;;;20.50;15.25;;;;;10.48;62.53;101986.50;5102147;27;46232;-69
2021/11/16 01:05:47;;;;;;;;;9.00;9.00;;;;;10.50;62.68;101988.22;5102294;27;45324;-69
2021/11/16 01:08:13;;;;;;;;;12.50;8.75;;;;;10.44;62.29;101976.72;5102823;27;45391;-69
2021/11/16 01:10:41;;;;;;;;;11.75;11.00;;;;;10.46;62.23;101980.28;5102187;27;45399;-69
2021/11/16 01:13:07;;;;;;;;;11.50;10.75;;;;;10.48;62.38;101986.50;5100974;27;47127;-69
2021/11/16 01:15:34;;;;;;;;;11.75;10.00;;;;;10.47;62.48;101980.25;5102116;27;45276;-69
2021/11/16 01:18:00;;;;;;;;;14.75;10.50;;;;;10.45;62.75;101982.06;5102526;27;45399;-69
2021/11/16 01:20:26;;;;;;;;;18.00;13.75;;;;;10.49;62.96;101983.81;5101874;27;45348;-69
2021/11/16 01:22:54;;;;;;;;;11.00;9.50;;;;;10.53;62.71;101976.63;5102010;27;45990;-69
2021/11/16 01:25:21;;;;;;;;;16.00;13.50;;;;;10.56;62.59;101972.13;5101852;27;45264;-69
2021/11/16 01:27:47;;;;;;;;;18.50;13.00;;;;;10.59;62.72;101976.53;5102571;27;45209;-69
2021/11/16 01:30:17;;;;;;;;;7.25;6.00;;;;;10.59;62.05;101983.66;5100832;27;45229;-69
2021/11/16 01:32:47;;;;;;;;;14.25;12.50;;;;;10.53;62.52;101971.28;5101942;27;46681;-69
2021/11/16 01:35:13;;;;;;;;;10.00;9.00;;;;;10.59;62.82;101984.53;5101815;27;45471;-69
2021/11/16 01:37:40;;;;;;;;;11.00;11.00;;;;;10.59;62.93;101973.88;5102006;27;45386;-69
2021/11/16 01:40:14;;;;;;;;;12.00;9.25;;;;;10.54;62.90;101965.03;5100536;27;45629;-69
2021/11/16 01:42:40;;;;;;;;;10.00;9.00;;;;;10.64;62.77;101982.72;5101631;27;47066;-69
2021/11/16 01:45:06;;;;;;;;;11.75;10.25;;;;;10.62;62.60;101970.28;5101829;27;45222;-69
2021/11/16 01:47:32;;;;;;;;;12.00;11.00;;;;;10.70;62.25;101982.63;5101893;27;45395;-69
2021/11/16 01:49:58;;;;;;;;;11.25;9.25;;;;;10.71;62.66;101986.22;5096088;27;45356;-69
2021/11/16 01:52:23;;;;;;;;;9.75;8.50;;;;;10.72;62.73;101990.63;5101570;27;46194;-69
2021/11/16 01:54:49;;;;;;;;;11.75;10.00;;;;;10.71;62.65;101986.22;5101577;27;45296;-69
2021/11/16 01:57:16;;;;;;;;;13.00;10.00;;;;;10.75;62.37;101993.25;5101146;27;45337;-69
2021/11/16 01:59:42;;;;;;;;;10.00;9.00;;;;;10.68;62.57;101978.22;5101621;27;45604;-69
2021/11/16 02:02:07;;;;;;;;;10.75;9.75;;;;;10.74;62.69;101988.81;5101526;27;45593;-69
2021/11/16 02:04:33;;;;;;;;;15.75;11.25;;;;;10.79;62.79;101991.44;5101436;27;45217;-69
2021/11/16 02:06:59;;;;;;;;;9.50;9.00;;;;;10.79;62.61;101989.63;5101487;27;45400;-69
2021/11/16 02:09:24;;;;;;;;;10.25;9.00;;;;;10.79;62.21;101972.72;5101475;27;45434;-69
2021/11/16 02:11:50;;;;;;;;;11.75;11.25;;;;;10.85;62.23;101984.22;5100949;27;45233;-69
2021/11/16 02:14:17;;;;;;;;;14.50;10.00;;;;;10.85;62.18;101976.19;5101382;27;45393;-69
2021/11/16 02:16:45;;;;;;;;;9.00;8.00;;;;;10.85;62.27;101975.31;5101408;27;45303;-69
2021/11/16 02:19:17;;;;;;;;;11.50;11.50;;;;;10.81;62.55;101976.25;5100164;27;46028;-69
2021/11/16 02:21:43;;;;;;;;;13.00;9.00;;;;;10.83;62.69;101972.69;5100725;27;45606;-69
2021/11/16 02:24:09;;;;;;;;;14.00;12.25;;;;;10.82;62.88;101972.69;5099954;27;45374;-69
2021/11/16 02:26:36;;;;;;;;;14.00;11.25;;;;;10.84;62.92;101965.53;5099208;27;45305;-69
2021/11/16 02:29:04;;;;;;;;;12.00;10.75;;;;;10.85;62.56;101973.53;5101241;27;45372;-69
2021/11/16 02:31:30;;;;;;;;;12.25;10.50;;;;;10.85;62.97;101961.97;5100844;27;46297;-69
2021/11/16 02:33:56;;;;;;;;;13.50;11.25;;;;;10.82;62.59;101956.66;5101216;27;45458;-69
2021/11/16 02:36:26;;;;;;;;;13.50;11.00;;;;;10.87;62.85;101971.72;5100697;27;45354;-69
2021/11/16 02:38:52;;;;;;;;;16.00;11.00;;;;;10.91;62.52;101975.25;5099834;27;45949;-69
2021/11/16 02:41:17;;;;;;;;;14.25;12.00;;;;;10.90;62.65;101968.13;5100390;27;46377;-69
2021/11/16 02:43:43;;;;;;;;;11.00;9.50;;;;;10.90;62.72;101965.47;5100907;27;45260;-69
2021/11/16 02:46:09;;;;;;;;;10.50;10.50;;;;;10.86;63.03;101953.03;5100938;27;45514;-70
2021/11/16 02:48:36;;;;;;;;;10.00;9.75;;;;;10.92;63.14;101974.31;5095088;27;45373;-69
2021/11/16 02:51:05;;;;;;;;;9.75;9.75;;;;;10.89;62.87;101969.03;5100110;27;45494;-69
2021/11/16 02:53:31;;;;;;;;;12.00;11.00;;;;;10.89;62.53;101961.91;5100740;27;45264;-69
2021/11/16 02:55:56;;;;;;;;;11.00;10.75;;;;;10.91;62.81;101962.78;5100644;27;45602;-69
2021/11/16 02:58:23;;;;;;;;;11.25;10.25;;;;;10.93;62.37;101962.75;5099534;27;45551;-69
2021/11/16 03:00:53;;;;;;;;;11.75;11.00;;;;;10.92;62.88;101960.97;5100542;27;45961;-69
2021/11/16 03:03:19;;;;;;;;;10.75;9.50;;;;;10.91;62.88;101959.22;5100799;27;45412;-69
2021/11/16 03:05:45;;;;;;;;;10.25;8.75;;;;;10.92;62.75;101959.16;5100353;27;45440;-69
2021/11/16 03:08:19;;;;;;;;;14.00;11.25;;;;;10.92;62.73;101964.50;5100227;27;45299;-69
2021/11/16 03:10:45;;;;;;;;;11.25;11.00;;;;;10.89;63.04;101961.91;5100250;27;45471;-69
2021/11/16 03:13:11;;;;;;;;;19.00;11.00;;;;;10.89;62.47;101961.91;5100567;27;45318;-69
2021/11/16 03:15:37;;;;;;;;;13.50;9.50;;;;;10.85;62.71;101959.31;5100501;27;45225;-69
2021/11/16 03:18:03;;;;;;;;;12.00;10.50;;;;;10.80;62.75;101961.16;5100416;27;45522;-69
2021/11/16 03:20:28;;;;;;;;;12.00;10.00;;;;;10.83;62.73;101962.00;5099847;27;46284;-69
2021/11/16 03:22:58;;;;;;;;;12.00;10.50;;;;;10.75;62.48;101942.50;5102330;27;45164;-69
2021/11/16 03:25:30;;;;;;;;;11.50;10.75;;;;;10.78;62.87;101954.97;5103755;27;45303;-69
2021/11/16 03:28:00;;;;;;;;;14.25;11.00;;;;;10.78;62.43;101957.63;5104118;27;45337;-69
2021/11/16 03:30:27;;;;;;;;;11.50;10.00;;;;;10.79;62.88;101954.03;5090718;27;46387;-69
2021/11/16 03:32:53;;;;;;;;;11.25;10.00;;;;;10.81;63.13;101958.47;5103848;27;45224;-69
2021/11/16 03:35:18;;;;;;;;;10.00;10.00;;;;;10.81;62.85;101953.13;5104201;27;45452;-69
2021/11/16 03:37:48;;;;;;;;;9.50;9.50;;;;;10.82;62.77;101954.00;5103774;27;45436;-69
2021/11/16 03:40:16;;;;;;;;;12.50;11.00;;;;;10.78;62.62;101946.94;5103583;27;46379;-69
2021/11/16 03:42:46;;;;;;;;;9.75;8.25;;;;;10.73;62.65;101957.69;5103760;27;45730;-69
2021/11/16 03:45:12;;;;;;;;;14.50;11.25;;;;;10.72;62.51;101954.09;5092641;27;45278;-69
2021/11/16 03:47:38;;;;;;;;;11.75;9.00;;;;;10.62;63.06;101947.13;5103646;27;45523;-69
2021/11/16 03:50:07;;;;;;;;;13.50;10.75;;;;;10.69;63.14;101956.84;5094620;27;45335;-69
2021/11/16 03:52:35;;;;;;;;;13.25;12.00;;;;;10.66;63.16;101954.22;5103528;27;45782;-69
2021/11/16 03:55:02;;;;;;;;;11.25;8.25;;;;;10.71;63.19;101963.03;5103476;27;45558;-69
2021/11/16 03:57:29;;;;;;;;;11.50;10.75;;;;;10.70;62.74;101958.59;5103363;27;45305;-69
2021/11/16 03:59:54;;;;;;;;;11.25;8.00;;;;;10.74;62.89;101960.34;5103525;27;46199;-69
2021/11/16 04:02:20;;;;;;;;;15.75;11.25;;;;;10.78;62.51;101957.63;5103469;27;45313;-69
2021/11/16 04:04:47;;;;;;;;;10.00;8.00;;;;;10.77;62.64;101959.41;5103599;27;45399;-69
2021/11/16 04:07:12;;;;;;;;;13.00;12.00;;;;;10.74;62.40;101952.31;5103190;27;45313;-69
2021/11/16 04:09:38;;;;;;;;;10.50;6.00;;;;;10.74;62.73;101955.00;5103479;27;46501;-69
2021/11/16 04:12:04;;;;;;;;;9.00;5.75;;;;;10.79;62.35;101954.03;5103083;27;45244;-69
2021/11/16 04:14:30;;;;;;;;;11.75;9.50;;;;;10.80;62.55;101958.47;5103628;27;45318;-69
2021/11/16 04:16:55;;;;;;;;;9.75;9.25;;;;;10.82;62.10;101949.53;5101735;27;45523;-69
2021/11/16 04:19:21;;;;;;;;;11.25;8.25;;;;;10.79;62.36;101946.03;5103334;27;46091;-69
2021/11/16 04:21:47;;;;;;;;;8.00;6.75;;;;;10.85;61.78;101957.50;5102709;27;45305;-69
2021/11/16 04:24:12;;;;;;;;;10.25;9.25;;;;;10.81;61.73;101950.44;5103518;27;45524;-69
2021/11/16 04:26:37;;;;;;;;;9.50;9.50;;;;;10.84;61.96;101946.84;5102649;27;45299;-69
2021/11/16 04:29:03;;;;;;;;;12.00;10.75;;;;;10.84;61.46;101955.75;5103220;27;45383;-69
2021/11/16 04:31:29;;;;;;;;;7.75;5.00;;;;;10.79;61.61;101957.56;5103003;27;45297;-69
2021/11/16 04:34:05;;;;;;;;;14.25;12.00;;;;;10.73;61.56;101947.88;5103309;27;45694;-69
2021/11/16 04:36:31;;;;;;;;;10.75;9.00;;;;;10.70;61.74;101955.06;5102757;27;45507;-69
2021/11/16 04:38:56;;;;;;;;;11.00;11.00;;;;;10.68;62.08;101955.06;5101608;27;48037;-69
2021/11/16 04:41:22;;;;;;;;;12.50;11.50;;;;;10.65;61.56;101960.44;5102703;27;45292;-69
2021/11/16 04:43:47;;;;;;;;;11.50;11.50;;;;;10.60;62.24;101950.75;5102919;27;45226;-69
2021/11/16 04:46:17;;;;;;;;;11.00;10.00;;;;;10.54;61.98;101941.00;5102846;27;45357;-69
2021/11/16 04:48:49;;;;;;;;;15.00;11.00;;;;;10.59;61.86;101955.19;5098515;27;48278;-69
2021/11/16 04:54:15;;;;;;;;;9.00;8.00;;;;;10.57;61.48;101949.88;5102810;27;45213;-69
2021/11/16 05:04:44;;;;;;;;;4.50;3.75;;;;;10.64;62.39;101961.38;5090466;27;45768;-69
2021/11/16 05:07:13;;;;;;;;;13.50;11.00;;;;;10.65;61.84;101960.44;5100880;27;45653;-69
2021/11/16 05:09:39;;;;;;;;;15.50;11.00;;;;;10.62;62.07;101957.81;5102416;27;46952;-69
2021/11/16 05:12:05;;;;;;;;;14.25;11.00;;;;;10.63;62.31;101964.94;5102053;27;45301;-69
2021/11/16 05:14:30;;;;;;;;;15.50;13.50;;;;;10.64;61.61;101960.47;5102771;27;45220;-69
2021/11/16 05:16:55;;;;;;;;;14.25;12.50;;;;;10.70;61.90;101961.25;5102188;27;45444;-69
2021/11/16 05:19:21;;;;;;;;;12.50;10.75;;;;;10.72;61.71;101958.56;5102319;27;47333;-69
2021/11/16 05:21:46;;;;;;;;;15.75;13.00;;;;;10.71;62.12;101946.16;5101720;27;45293;-69
2021/11/16 05:24:13;;;;;;;;;15.00;11.75;;;;;10.66;62.14;101940.88;5102242;27;45306;-69
2021/11/16 05:26:38;;;;;;;;;12.50;11.00;;;;;10.71;62.12;101949.69;5101985;27;45360;-69
2021/11/16 05:29:04;;;;;;;;;14.25;11.00;;;;;10.75;61.62;101959.41;5102313;27;46097;-69
2021/11/16 05:31:29;;;;;;;;;14.25;10.50;;;;;10.77;61.42;101961.19;5101969;27;45417;-69
2021/11/16 05:33:55;;;;;;;;;11.50;10.50;;;;;10.74;61.90;101959.44;5102534;27;45312;-69
2021/11/16 05:36:22;;;;;;;;;13.75;10.75;;;;;10.72;61.22;101962.13;5101595;27;45241;-69
2021/11/16 05:38:48;;;;;;;;;12.00;11.50;;;;;10.69;61.75;101963.97;5102077;27;46200;-69
2021/11/16 05:41:15;;;;;;;;;15.00;13.25;;;;;10.68;62.00;101965.75;5101827;27;45326;-69
2021/11/16 05:43:43;;;;;;;;;11.75;10.75;;;;;10.70;61.40;101965.72;5101877;27;45535;-69
2021/11/16 05:46:08;;;;;;;;;12.00;11.50;;;;;10.73;62.03;101965.69;5101344;27;45445;-69
2021/11/16 05:48:36;;;;;;;;;16.75;12.75;;;;;10.76;62.26;101968.34;5098800;27;46886;-69
2021/11/16 05:51:02;;;;;;;;;9.75;9.50;;;;;10.69;61.88;101962.19;5095927;27;45174;-69
2021/11/16 05:53:29;;;;;;;;;8.75;5.50;;;;;10.67;61.21;101971.09;5100673;27;45374;-69
2021/11/16 05:55:54;;;;;;;;;12.00;8.25;;;;;10.61;61.55;101960.50;5101427;27;45213;-69
2021/11/16 05:58:20;;;;;;;;;8.25;7.00;;;;;10.60;61.45;101970.31;5101855;27;45926;-69
2021/11/16 06:00:46;;;;;;;;;12.50;8.25;;;;;10.62;61.14;101971.16;5101415;27;45397;-69
2021/11/16 06:03:12;;;;;;;;;14.00;12.75;;;;;10.56;61.56;101969.47;5101910;27;45444;-69
2021/11/16 06:05:38;;;;;;;;;11.50;10.75;;;;;10.57;61.47;101973.00;5101083;27;45476;-69
2021/11/16 06:08:05;;;;;;;;;13.25;11.00;;;;;10.56;61.97;101974.81;5101627;27;45284;-69
2021/11/16 06:10:30;;;;;;;;;12.75;10.50;;;;;10.59;61.89;101973.88;5101217;27;45766;-69
2021/11/16 06:12:56;;;;;;;;;12.75;11.25;;;;;10.61;61.93;101972.09;5101583;27;45396;-69
2021/11/16 06:15:21;;;;;;;;;12.50;10.25;;;;;10.59;61.93;101965.84;5100434;27;45290;-69
2021/11/16 06:17:46;;;;;;;;;15.25;11.75;;;;;10.64;61.60;101977.38;5099521;27;45515;-69
2021/11/16 06:20:17;;;;;;;;;13.25;11.25;;;;;10.68;61.56;101980.91;5101149;27;45305;-69
2021/11/16 06:22:42;;;;;;;;;17.00;13.25;;;;;10.71;61.36;101975.53;5101369;27;45330;-69
2021/11/16 06:25:08;;;;;;;;;14.25;11.00;;;;;10.72;61.30;101974.59;5099358;27;45513;-69
2021/11/16 06:27:33;;;;;;;;;11.00;10.25;;;;;10.67;61.30;101980.00;5100930;27;45370;-69
2021/11/16 06:29:59;;;;;;;;;16.25;10.25;;;;;10.63;61.69;101977.41;5101300;27;45723;-69
2021/11/16 06:32:24;;;;;;;;;10.00;7.50;;;;;10.64;61.58;101987.16;5101132;27;45455;-69
2021/11/16 06:34:50;;;;;;;;;15.50;12.25;;;;;10.61;61.98;101980.09;5101218;27;45415;-69
2021/11/16 06:37:15;;;;;;;;;12.75;12.00;;;;;10.55;62.05;101986.38;5100610;27;45443;-69
2021/11/16 06:39:41;;;;;;;;;12.75;10.75;;;;;10.52;61.95;101991.78;5101127;27;45288;-69
2021/11/16 06:42:06;;;;;;;;;14.25;13.00;;;;;10.51;61.63;101991.78;5099222;27;45509;-69
2021/11/16 06:44:32;;;;;;;;;15.25;12.50;;;;;10.49;62.34;101989.16;5094199;27;45286;-69
2021/11/16 06:46:58;;;;;;;;;15.50;14.50;;;;;10.48;62.44;101986.50;5100496;27;45301;-69
2021/11/16 06:49:23;;;;;;;;;14.75;13.00;;;;;10.49;62.83;101983.81;5100587;27;45199;-66
2021/11/16 06:51:52;;;;;;;;;17.75;16.75;;;;;10.51;62.59;101991.78;5100321;27;45334;-65
2021/11/16 06:54:21;;;;;;;;;14.50;11.00;;;;;10.51;62.12;101981.13;5100675;27;45552;-65
2021/11/16 06:56:49;;;;;;;;;12.50;12.00;;;;;10.46;61.95;101973.16;5099041;27;46627;-65
2021/11/16 06:59:19;;;;;;;;;22.75;20.50;;;;;10.49;62.56;101989.16;5099652;27;45381;-66
2021/11/16 07:01:45;;;;;;;;;26.25;21.00;;;;;10.51;62.74;101989.13;5100622;27;45325;-66
2021/11/16 07:04:12;;;;;;;;;13.50;12.00;;;;;10.49;62.13;101982.91;5100517;27;45413;-67
2021/11/16 07:06:40;;;;;;;;;18.75;14.75;;;;;10.53;62.28;101990.84;5098668;27;46859;-67
2021/11/16 07:09:06;;;;;;;;;18.00;14.50;;;;;10.49;62.29;101988.25;5099950;27;45352;-67
2021/11/16 07:11:41;;;;;;;;;16.25;13.50;;;;;10.45;62.72;101982.06;5098962;27;46781;-67
2021/11/16 07:14:09;;;;;;;;;11.00;11.00;;;;;10.54;62.80;101997.97;5100510;27;45343;-66
2021/11/16 07:16:36;;;;;;;;;15.75;11.25;;;;;10.57;62.59;101999.72;5097949;27;46170;-67
2021/11/16 07:19:03;;;;;;;;;14.25;12.00;;;;;10.59;62.07;102000.56;5098175;27;45381;-67
2021/11/16 07:21:42;;;;;;;;;14.75;12.25;;;;;10.56;61.90;101995.28;5087569;27;45417;-67
2021/11/16 07:24:14;;;;;;;;;16.25;12.00;;;;;10.54;62.54;101997.97;5100434;27;45312;-67
2021/11/16 07:26:41;;;;;;;;;18.75;13.75;;;;;10.59;62.35;101994.34;5099681;27;46181;-67
2021/11/16 07:29:11;;;;;;;;;19.50;11.75;;;;;10.60;62.07;101991.66;5099716;27;45391;-67
2021/11/16 07:31:38;;;;;;;;;14.50;13.25;;;;;10.61;61.81;101988.09;5100165;27;45371;-67
2021/11/16 07:34:20;;;;;;;;;10.25;10.00;;;;;10.59;61.82;101989.00;5100295;27;45630;-67
2021/11/16 07:37:05;;;;;;;;;15.75;13.25;;;;;10.59;62.00;101997.91;5095717;27;45356;-67
2021/11/16 07:39:44;;;;;;;;;15.00;11.00;;;;;10.57;62.20;101987.25;5096899;27;45602;-69
2021/11/16 07:42:09;;;;;;;;;15.25;11.25;;;;;10.66;62.31;102004.03;5099614;27;45483;-66
2021/11/16 07:44:35;;;;;;;;;13.00;11.50;;;;;10.67;61.99;102001.34;5099855;27;45854;-66
2021/11/16 07:47:03;;;;;;;;;20.00;14.25;;;;;10.71;62.07;102005.78;5097477;27;46668;-66
2021/11/16 07:49:28;;;;;;;;;14.75;13.00;;;;;10.70;61.71;102001.31;5089542;27;45751;-68
2021/11/16 07:51:55;;;;;;;;;12.00;12.00;;;;;10.74;61.74;102008.41;5094990;27;45296;-68
2021/11/16 07:54:23;;;;;;;;;15.00;12.75;;;;;10.74;62.27;102011.09;5099499;27;45525;-68
2021/11/16 07:56:48;;;;;;;;;10.50;10.00;;;;;10.72;61.94;101995.97;5099255;27;46184;-68
2021/11/16 07:59:14;;;;;;;;;10.00;9.00;;;;;10.74;61.93;102011.09;5098323;27;45637;-68
2021/11/16 08:02:01;;;;;;;;;13.00;13.00;;;;;10.75;61.73;102004.81;5098556;27;45646;-68
2021/11/16 08:09:53;;;;;;;;;17.25;12.25;;;;;10.61;61.70;101984.53;5102213;27;45254;-68
2021/11/16 08:14:47;;;;;;;;;11.75;11.00;;;;;10.66;61.63;101996.94;5102913;27;45158;-68
2021/11/16 08:17:13;;;;;;;;;15.75;14.25;;;;;10.59;61.51;101999.69;5102503;27;45399;-68
2021/11/16 08:19:41;;;;;;;;;15.75;14.75;;;;;10.52;61.43;101994.44;5094110;27;45835;-68
2021/11/16 08:22:12;;;;;;;;;12.25;12.25;;;;;10.50;61.74;102003.38;5086892;27;45634;-68
2021/11/16 08:24:41;;;;;;;;;18.75;12.50;;;;;10.53;61.36;102004.22;5101524;27;45383;-68
2021/11/16 08:27:12;;;;;;;;;16.00;12.75;;;;;10.52;61.78;102014.91;5099128;27;46221;-68
2021/11/16 08:29:40;;;;;;;;;9.50;7.25;;;;;10.52;61.55;102005.13;5088082;27;45385;-68
2021/11/16 08:32:13;;;;;;;;;12.25;9.75;;;;;10.48;61.84;101994.50;5102294;27;45374;-68
2021/11/16 08:34:45;;;;;;;;;13.50;13.50;;;;;10.52;61.95;101999.78;5102299;27;45376;-68
2021/11/16 08:37:13;;;;;;;;;17.00;11.25;;;;;10.45;61.54;101984.72;5101993;27;45438;-68
2021/11/16 08:39:40;;;;;;;;;10.50;6.75;;;;;10.47;61.14;101990.06;5101652;27;45378;-68
2021/11/16 08:42:21;;;;;;;;;13.25;10.25;;;;;10.46;60.91;101994.50;5100767;27;45358;-67
2021/11/16 08:44:54;;;;;;;;;11.50;9.75;;;;;10.45;61.30;101994.53;5101889;27;45457;-68
2021/11/16 08:47:24;;;;;;;;;12.00;9.75;;;;;10.45;61.44;101986.53;5100630;27;46017;-68
2021/11/16 08:49:49;;;;;;;;;12.50;11.00;;;;;10.47;61.63;101990.06;5097312;27;45472;-68
2021/11/16 08:52:18;;;;;;;;;12.25;11.00;;;;;10.46;61.33;101985.63;5100922;27;45445;-68
2021/11/16 08:54:55;;;;;;;;;12.50;11.00;;;;;10.46;61.05;101978.50;5101139;27;45386;-68
2021/11/16 08:57:22;;;;;;;;;10.25;10.00;;;;;10.48;61.15;101981.16;5098446;27;46170;-71
2021/11/16 08:59:48;;;;;;;;;11.25;9.25;;;;;10.50;61.30;101976.66;5100937;27;45532;-74
2021/11/16 09:02:17;;;;;;;;;14.75;13.75;;;;;10.51;60.99;101976.66;5101282;27;45495;-73
2021/11/16 09:04:43;;;;;;;;;10.25;9.25;;;;;10.45;60.61;101970.50;5101537;27;45468;-76
2021/11/16 09:07:23;;;;;;;;;12.50;11.50;;;;;10.50;61.01;101982.00;5101375;27;46132;-67
2021/11/16 09:09:54;;;;;;;;;9.00;9.00;;;;;10.49;61.01;101982.91;5097471;27;45710;-67
2021/11/16 09:12:19;;;;;;;;;8.50;8.50;;;;;10.49;60.74;101977.56;5101843;27;45322;-67
2021/11/16 09:14:54;;;;;;;;;8.25;8.25;;;;;10.49;60.35;101986.47;5099847;27;45599;-67
2021/11/16 09:17:19;;;;;;;;;8.00;5.50;;;;;10.41;60.68;101964.31;5094873;27;45407;-67
2021/11/16 09:19:45;;;;;;;;;11.00;9.75;;;;;10.53;60.80;101971.28;5099444;27;45266;-67
2021/11/16 09:22:16;;;;;;;;;11.50;10.25;;;;;10.53;60.75;101966.81;5099758;27;45713;-67
2021/11/16 09:24:43;;;;;;;;;10.50;10.50;;;;;10.53;60.37;101971.28;5101300;27;45187;-67
2021/11/16 09:29:36;;;;;;;;;9.25;9.00;;;;;10.51;60.19;101963.31;5100741;27;45616;-67
2021/11/16 09:32:14;;;;;;;;;13.25;10.00;;;;;10.55;60.75;101954.34;5101443;27;45449;-67
2021/11/16 09:34:43;;;;;;;;;9.00;7.50;;;;;10.55;60.10;101949.00;5100589;27;45396;-67
2021/11/16 09:37:14;;;;;;;;;8.75;8.00;;;;;10.56;60.18;101948.09;5100585;27;45350;-67
2021/11/16 09:39:56;;;;;;;;;10.50;9.00;;;;;10.59;60.19;101956.97;5100670;27;45832;-66
2021/11/16 09:42:32;;;;;;;;;8.50;6.00;;;;;10.55;60.31;101956.13;5100991;27;45405;-67
2021/11/16 09:45:05;;;;;;;;;10.50;9.25;;;;;10.51;60.28;101957.09;5101014;27;45474;-67
2021/11/16 09:47:34;;;;;;;;;9.75;9.25;;;;;10.54;59.87;101959.69;5087407;27;45319;-67
2021/11/16 09:50:08;;;;;;;;;8.75;8.75;;;;;10.52;59.67;101949.06;5096031;27;45772;-67
2021/11/16 09:52:38;;;;;;;;;12.75;9.50;;;;;10.59;60.23;101951.63;5101067;27;45373;-68
2021/11/16 09:55:18;;;;;;;;;10.75;9.00;;;;;10.59;60.27;101949.84;5100914;27;45428;-67
2021/11/16 09:57:55;;;;;;;;;12.50;9.00;;;;;10.67;60.15;101952.41;5089125;27;45362;-67
2021/11/16 10:00:28;;;;;;;;;11.50;9.75;;;;;10.71;60.35;101954.16;5099636;27;45236;-67
2021/11/16 10:02:53;;;;;;;;;10.00;9.00;;;;;10.72;60.18;101946.09;5101489;27;45479;-67
2021/11/16 10:05:22;;;;;;;;;12.25;10.75;;;;;10.74;60.23;101949.66;5088172;27;45460;-67
2021/11/16 10:07:49;;;;;;;;;8.50;8.00;;;;;10.78;60.25;101954.97;5100857;27;47063;-67
2021/11/16 10:10:16;;;;;;;;;8.25;8.25;;;;;10.78;60.11;101952.28;5100185;27;45376;-67
2021/11/16 10:12:53;;;;;;;;;7.25;5.50;;;;;10.77;59.73;101953.19;5101312;27;45408;-67
2021/11/16 10:15:22;;;;;;;;;10.00;9.00;;;;;10.80;59.76;101959.34;5100681;27;45372;-67
2021/11/16 10:17:49;;;;;;;;;11.00;10.00;;;;;10.80;59.43;101961.16;5100715;27;45401;-67
2021/11/16 10:20:18;;;;;;;;;14.25;8.75;;;;;10.79;59.81;101954.03;5100445;27;45344;-67
2021/11/16 10:22:52;;;;;;;;;11.75;9.75;;;;;10.81;59.68;101960.22;5098855;27;45517;-67
2021/11/16 10:25:21;;;;;;;;;13.75;12.00;;;;;10.76;59.52;101963.00;5099833;27;45415;-67
2021/11/16 10:27:49;;;;;;;;;11.00;10.00;;;;;10.75;59.52;101956.75;5096746;27;47175;-67
2021/11/16 10:30:22;;;;;;;;;10.75;10.00;;;;;10.78;59.58;101954.97;5099964;27;45524;-67
2021/11/16 10:33:04;;;;;;;;;10.50;7.00;;;;;10.80;59.82;101950.47;5100024;27;45171;-67
2021/11/16 10:35:30;;;;;;;;;11.00;9.00;;;;;10.82;60.02;101951.31;5098696;27;45786;-67
2021/11/16 10:37:58;;;;;;;;;12.50;11.75;;;;;10.84;59.83;101946.84;5100205;27;45449;-67
2021/11/16 10:40:27;;;;;;;;;14.25;9.50;;;;;10.88;59.86;101951.25;5099576;27;45301;-67
2021/11/16 10:42:56;;;;;;;;;13.00;11.50;;;;;10.88;59.52;101945.91;5100524;27;45422;-67
2021/11/16 10:45:25;;;;;;;;;10.25;9.00;;;;;10.92;59.99;101950.28;5100024;27;45348;-67
2021/11/16 10:47:51;;;;;;;;;11.75;10.50;;;;;10.93;59.32;101946.72;5099820;27;46213;-67
2021/11/16 10:50:20;;;;;;;;;11.75;10.25;;;;;10.89;59.69;101934.28;5098900;27;45390;-67
2021/11/16 10:53:14;;;;;;;;;14.50;12.50;;;;;10.98;59.66;101950.19;5100318;27;45330;-67
2021/11/16 10:55:49;;;;;;;;;9.50;9.25;;;;;10.98;59.66;101955.56;5100104;27;45443;-67
2021/11/16 10:58:20;;;;;;;;;11.50;7.50;;;;;10.99;60.11;101953.75;5099295;27;47455;-67
2021/11/16 11:00:54;;;;;;;;;14.00;11.00;;;;;11.02;59.73;101948.38;5099799;27;45849;-67
2021/11/16 11:03:29;;;;;;;;;2.25;2.00;;;;;11.03;60.10;101939.47;5098665;27;45698;-67
2021/11/16 11:05:58;;;;;;;;;13.25;12.75;;;;;11.09;59.90;101940.25;5099844;27;45332;-67
2021/11/16 11:08:39;;;;;;;;;9.75;8.75;;;;;11.13;59.44;101947.28;5099632;27;46341;-67
2021/11/16 11:11:17;;;;;;;;;10.50;10.00;;;;;11.16;59.70;101935.69;5098803;27;45423;-67
2021/11/16 11:13:46;;;;;;;;;12.50;9.75;;;;;11.18;59.80;101939.22;5100203;27;45483;-67
2021/11/16 11:16:17;;;;;;;;;13.00;10.50;;;;;11.15;59.57;101928.56;5088535;27;45405;-67
2021/11/16 11:18:47;;;;;;;;;12.00;10.50;;;;;11.13;59.61;101925.91;5099124;27;46506;-67
2021/11/16 11:21:44;;;;;;;;;8.75;6.50;;;;;11.11;59.31;101922.38;5099955;27;45615;-67
2021/11/16 11:24:24;;;;;;;;;11.00;9.75;;;;;11.06;59.29;101924.25;5090384;27;45303;-67
2021/11/16 11:27:00;;;;;;;;;14.00;10.00;;;;;11.06;59.49;101912.66;5099792;27;45557;-72
2021/11/16 11:29:47;;;;;;;;;13.25;11.00;;;;;11.08;59.91;101909.06;5100124;27;45404;-68
2021/11/16 11:32:26;;;;;;;;;11.25;10.00;;;;;11.08;59.62;101900.19;5099334;27;45241;-67
2021/11/16 11:35:01;;;;;;;;;14.00;13.25;;;;;11.12;59.68;101905.44;5107224;27;45500;-68
2021/11/16 11:37:34;;;;;;;;;18.75;13.00;;;;;11.10;59.86;101903.72;5099629;27;45513;-68
2021/11/16 11:40:02;;;;;;;;;20.25;12.25;;;;;11.15;59.89;101904.50;5099968;27;45689;-68
2021/11/16 11:42:30;;;;;;;;;14.50;14.50;;;;;11.12;59.99;101894.75;5099748;27;45376;-67